Time;durP1;ratioP1;P1;durP2;ratioP2;P2;SDS_P1;SDS_P2;PMS_P1;PMS_P2;Temp;Humidity;BMP_temperature;BMP_pressure;BME280_temperature;BME280_humidity;BME280_pressure;Samples;Min_cycle;Max_cycle;Signal;HPM_P1;HPM_P2
2024/03/09 00:01:55;;;;;;;22.13;11.13;;;;;;;1.81;74.57;100471.47;31024548;28;20054;-78
2024/03/09 00:16:58;;;;;;;23.17;10.27;;;;;;;2.11;74.61;100461.78;31006395;28;20061;-78
2024/03/09 00:32:00;;;;;;;17.23;8.97;;;;;;;2.44;74.06;100452.47;31011257;28;20381;-77
2024/03/09 00:47:02;;;;;;;22.70;9.47;;;;;;;2.12;74.11;100439.25;31071551;28;20058;-78
2024/03/09 01:02:04;;;;;;;31.63;11.73;;;;;;;1.77;75.08;100430.47;31134761;28;20045;-78
2024/03/09 01:17:06;;;;;;;29.13;14.20;;;;;;;1.98;74.41;100420.19;31142765;28;20057;-79
2024/03/09 01:32:08;;;;;;;34.60;14.97;;;;;;;1.89;73.43;100416.97;31118296;28;20195;-79
2024/03/09 01:47:11;;;;;;;32.93;13.57;;;;;;;1.77;75.83;100414.41;31123065;28;20061;-77
2024/03/09 02:02:15;;;;;;;31.57;14.90;;;;;;;1.73;75.62;100413.56;31117943;28;20136;-78
2024/03/09 02:17:17;;;;;;;31.57;14.97;;;;;;;1.65;75.95;100412.66;31117902;28;20495;-77
2024/03/09 02:32:21;;;;;;;34.17;16.10;;;;;;;1.93;74.64;100417.78;31117379;28;20129;-79
2024/03/09 02:47:24;;;;;;;41.27;18.17;;;;;;;1.99;70.96;100416.41;31148441;28;20108;-78
2024/03/09 03:17:46;;;;;;;42.97;20.50;;;;;;;1.76;72.70;100402.16;31157298;28;20085;-78
2024/03/09 03:32:50;;;;;;;27.27;15.17;;;;;;;1.41;72.61;100397.59;31150226;28;20145;-78
2024/03/09 03:47:53;;;;;;;37.30;18.73;;;;;;;1.27;76.49;100402.63;31141582;28;20057;-78
2024/03/09 04:02:55;;;;;;;52.63;19.97;;;;;;;1.17;79.49;100401.28;31137878;28;20046;-78
2024/03/09 04:17:57;;;;;;;57.73;22.63;;;;;;;1.27;78.11;100407.97;31131797;28;20053;-76
2024/03/09 04:33:02;;;;;;;58.03;21.57;;;;;;;1.61;76.21;100412.56;31136295;28;20133;-79
2024/03/09 04:48:04;;;;;;;40.53;15.10;;;;;;;1.57;73.78;100421.66;31069884;28;20050;-77
2024/03/09 05:03:07;;;;;;;34.13;17.47;;;;;;;1.33;76.19;100433.34;31026412;28;20058;-78
2024/03/09 05:18:10;;;;;;;34.67;15.80;;;;;;;1.58;77.14;100445.38;31051679;28;20046;-78
2024/03/09 05:33:13;;;;;;;36.83;16.60;;;;;;;2.81;70.71;100448.16;31042163;28;20065;-77
2024/03/09 05:48:17;;;;;;;32.80;15.03;;;;;;;3.83;64.60;100455.44;31049949;28;20571;-77
2024/03/09 06:03:19;;;;;;;35.90;16.23;;;;;;;5.18;60.03;100462.25;31004160;28;20057;-80
2024/03/09 06:18:24;;;;;;;36.50;17.43;;;;;;;6.68;55.63;100451.06;30997339;28;20077;-80
2024/03/09 06:33:27;;;;;;;39.03;17.27;;;;;;;8.07;52.62;100448.97;30987326;28;20386;-78
2024/03/09 06:48:29;;;;;;;38.67;15.60;;;;;;;10.03;48.06;100448.25;31052934;28;20054;-78
2024/03/09 07:03:38;;;;;;;38.63;17.63;;;;;;;11.64;43.61;100445.41;31111868;28;20058;-77
2024/03/09 07:18:40;;;;;;;39.13;14.63;;;;;;;12.83;40.81;100437.13;31112914;28;20050;-78
2024/03/09 07:33:43;;;;;;;35.50;13.53;;;;;;;14.21;38.15;100449.09;31133648;28;20412;-79
2024/03/09 07:48:45;;;;;;;22.27;10.93;;;;;;;14.50;36.69;100449.81;31164263;28;20057;-76
2024/03/09 08:03:48;;;;;;;22.43;9.67;;;;;;;15.77;33.98;100435.91;31128323;28;20100;-78
2024/03/09 08:18:50;;;;;;;15.87;7.90;;;;;;;16.73;31.26;100417.84;31146272;28;20178;-80
2024/03/09 08:33:53;;;;;;;24.83;8.93;;;;;;;18.12;30.19;100412.72;31153157;28;20467;-82
2024/03/09 08:48:55;;;;;;;16.70;7.97;;;;;;;17.93;29.62;100423.75;31051726;28;20468;-79
2024/03/09 09:04:03;;;;;;;14.07;7.33;;;;;;;18.45;29.51;100405.25;30999723;28;20134;-79
2024/03/09 09:19:05;;;;;;;13.63;6.93;;;;;;;18.90;28.48;100420.78;30999106;28;20054;-78
2024/03/09 09:34:10;;;;;;;15.80;8.15;;;;;;;19.43;28.48;100409.84;31002943;28;20123;-74
2024/03/09 09:49:14;;;;;;;18.23;7.20;;;;;;;19.09;28.47;100407.69;31083383;28;20093;-79
2024/03/09 10:04:16;;;;;;;10.57;5.60;;;;;;;19.30;27.97;100398.34;31126792;28;20052;-78
2024/03/09 10:19:20;;;;;;;12.13;5.95;;;;;;;19.36;28.20;100390.19;31122189;28;20050;-81
2024/03/09 10:34:28;;;;;;;10.10;5.60;;;;;;;19.76;28.08;100384.19;31126829;28;20520;-82
2024/03/09 10:49:34;;;;;;;18.88;5.45;;;;;;;19.75;27.98;100366.16;31165220;28;20140;-84
2024/03/09 11:04:38;;;;;;;12.30;6.18;;;;;;;19.25;27.88;100368.72;31201655;28;20050;-85
2024/03/09 11:19:43;;;;;;;11.00;5.70;;;;;;;20.16;27.50;100349.75;31168791;28;20061;-84
2024/03/09 11:34:46;;;;;;;9.32;5.18;;;;;;;20.17;27.05;100351.28;31181796;28;20045;-85
2024/03/09 11:49:50;;;;;;;9.48;4.38;;;;;;;17.16;29.51;100362.00;31133433;28;20061;-86
2024/03/09 12:04:56;;;;;;;8.33;3.50;;;;;;;15.31;31.53;100369.88;31127474;28;20100;-84
2024/03/09 12:19:59;;;;;;;7.43;3.40;;;;;;;15.05;32.07;100373.91;31149910;28;20050;-85
2024/03/09 12:35:02;;;;;;;8.70;4.33;;;;;;;14.76;32.30;100370.59;31133023;28;20045;-84
2024/03/09 12:50:08;;;;;;;9.00;3.97;;;;;;;14.47;32.56;100363.28;31167413;28;20064;-83
2024/03/09 13:05:21;;;;;;;13.40;5.90;;;;;;;13.86;33.58;100369.78;31151576;28;20049;-83
2024/03/09 13:20:42;;;;;;;9.47;5.27;;;;;;;13.53;34.18;100374.59;31131316;28;20050;-81
2024/03/09 13:35:44;;;;;;;11.03;5.20;;;;;;;13.37;34.46;100376.63;31124329;28;20048;-84
2024/03/09 13:50:46;;;;;;;12.50;5.60;;;;;;;13.10;35.08;100383.13;31123637;28;20105;-82
2024/03/09 14:05:48;;;;;;;11.07;4.47;;;;;;;12.70;35.37;100387.25;31108455;28;20064;-82
2024/03/09 14:20:52;;;;;;;14.67;6.87;;;;;;;12.46;35.95;100381.19;31128943;28;20496;-81
2024/03/09 14:35:57;;;;;;;10.17;4.90;;;;;;;12.39;36.47;100387.56;31128739;28;20045;-82
2024/03/09 14:51:01;;;;;;;;;;;;;;;12.32;37.17;100393.16;31022993;28;20054;-82
2024/03/09 15:06:03;;;;;;;21.40;6.40;;;;;;;11.98;37.23;100406.34;30989921;28;19921;-84
2024/03/09 15:21:06;;;;;;;14.47;6.40;;;;;;;11.80;38.00;100418.34;30991923;28;20450;-83
2024/03/09 15:36:12;;;;;;;16.53;7.27;;;;;;;11.49;38.88;100411.53;31014787;28;20077;-81
2024/03/09 15:51:17;;;;;;;14.53;7.27;;;;;;;11.40;38.79;100427.59;31039845;28;20104;-81
2024/03/09 16:06:20;;;;;;;17.67;7.43;;;;;;;11.21;39.49;100442.69;31018332;28;20082;-81
2024/03/09 16:21:22;;;;;;;19.27;8.47;;;;;;;11.15;40.02;100461.41;31021735;28;20488;-80
2024/03/09 16:36:25;;;;;;;23.13;8.10;;;;;;;10.87;41.47;100467.28;31019595;28;20424;-81
2024/03/09 16:51:27;;;;;;;18.60;8.50;;;;;;;10.81;41.42;100471.66;31119538;28;20061;-76
2024/03/09 17:06:33;;;;;;;22.50;8.80;;;;;;;10.90;41.66;100477.34;31138048;28;20049;-80
2024/03/09 17:21:38;;;;;;;23.73;10.03;;;;;;;10.77;41.35;100479.09;31131311;28;20049;-79
2024/03/09 17:36:41;;;;;;;;;;;;;;;10.69;42.68;100504.78;31131054;28;20085;-78
2024/03/09 17:51:44;;;;;;;25.23;10.27;;;;;;;10.18;42.89;100514.72;31126003;28;19977;-80
2024/03/09 18:06:48;;;;;;;26.33;12.00;;;;;;;10.10;43.04;100524.13;31112417;28;20053;-81
2024/03/09 18:21:50;;;;;;;28.30;11.40;;;;;;;10.04;43.45;100539.28;31139512;28;20076;-81
2024/03/09 18:36:55;;;;;;;27.37;10.83;;;;;;;10.34;43.03;100539.38;31118526;28;20052;-78
2024/03/09 18:51:58;;;;;;;23.57;11.63;;;;;;;9.92;43.78;100546.75;31108982;28;20173;-77
2024/03/09 19:07:03;;;;;;;34.30;12.33;;;;;;;9.93;43.52;100552.94;31117793;28;20064;-78
2024/03/09 19:22:07;;;;;;;23.10;10.83;;;;;;;9.64;43.30;100557.88;31147844;28;20404;-79
2024/03/09 19:37:09;;;;;;;25.17;10.60;;;;;;;9.39;43.20;100554.59;31153260;28;20127;-81
2024/03/09 19:52:14;;;;;;;18.53;8.23;;;;;;;9.23;43.37;100547.72;31031724;28;20061;-81
2024/03/09 20:07:16;;;;;;;19.73;6.93;;;;;;;9.11;43.80;100540.09;30998853;28;20050;-78
2024/03/09 20:22:18;;;;;;;14.60;7.40;;;;;;;8.97;43.88;100537.47;31013986;28;20489;-81
2024/03/09 20:37:20;;;;;;;18.97;9.13;;;;;;;8.64;44.50;100543.44;31007270;28;20058;-79
2024/03/09 20:52:22;;;;;;;24.43;11.00;;;;;;;8.68;45.34;100550.41;31105426;28;20519;-81
2024/03/09 21:07:24;;;;;;;37.63;15.03;;;;;;;8.16;45.77;100542.06;31106973;28;20046;-79
2024/03/09 21:22:26;;;;;;;26.27;11.87;;;;;;;7.82;46.10;100520.09;31142556;28;20057;-79
2024/03/09 21:37:29;;;;;;;47.70;20.43;;;;;;;7.61;49.40;100552.56;31134189;28;20518;-76
2024/03/09 21:52:33;;;;;;;38.17;15.00;;;;;;;7.21;49.70;100536.75;31131524;28;20085;-77
2024/03/09 22:07:36;;;;;;;30.87;15.07;;;;;;;7.32;50.82;100540.22;31119723;28;20050;-78
2024/03/09 22:22:41;;;;;;;29.80;14.10;;;;;;;7.43;50.74;100538.28;31120664;28;20046;-79
2024/03/09 22:37:44;;;;;;;28.03;14.13;;;;;;;7.27;53.35;100548.72;31116813;28;20050;-76
2024/03/09 22:52:47;;;;;;;27.83;12.57;;;;;;;6.77;57.24;100537.81;31043584;28;20100;-76
2024/03/09 23:07:50;;;;;;;44.03;14.07;;;;;;;6.89;57.11;100545.53;31016091;28;20058;-77
2024/03/09 23:22:52;;;;;;;33.87;13.30;;;;;;;6.69;58.86;100541.63;31013166;28;20050;-77
2024/03/09 23:37:55;;;;;;;27.87;13.20;;;;;;;6.62;57.96;100547.00;31013951;28;20515;-78
2024/03/09 23:52:57;;;;;;;44.30;14.03;;;;;;;6.67;59.43;100549.34;31125600;28;20065;-78
